Time;durP1;ratioP1;P1;durP2;ratioP2;P2;SDS_P1;SDS_P2;PMS_P1;PMS_P2;Temp;Humidity;BMP_temperature;BMP_pressure;BME280_temperature;BME280_humidity;BME280_pressure;Samples;Min_cycle;Max_cycle;Signal;HPM_P1;HPM_P2
2021/10/30 00:01:38;;;;;;;49.22;36.60;;;9.90;99.90;;;;;;5049325;28;20075;-78
2021/10/30 00:04:04;;;;;;;53.83;36.63;;;9.80;99.90;;;;;;5041898;28;20026;-78
2021/10/30 00:06:29;;;;;;;45.65;36.03;;;9.90;99.90;;;;;;5034148;28;20108;-78
2021/10/30 00:08:55;;;;;;;47.08;36.22;;;9.90;99.90;;;;;;5044656;28;20601;-78
2021/10/30 00:11:22;;;;;;;50.15;35.40;;;9.80;99.90;;;;;;5050993;28;20033;-78
2021/10/30 00:13:47;;;;;;;47.17;35.45;;;9.80;99.90;;;;;;5046752;28;20025;-77
2021/10/30 00:16:19;;;;;;;46.80;35.83;;;9.80;99.90;;;;;;5049731;28;20110;-77
2021/10/30 00:18:45;;;;;;;46.35;35.42;;;9.80;99.90;;;;;;5080163;28;20479;-77
2021/10/30 00:21:10;;;;;;;51.08;34.53;;;9.80;99.90;;;;;;5050755;28;20479;-78
2021/10/30 00:23:36;;;;;;;44.50;34.50;;;9.80;99.90;;;;;;5043349;28;20101;-77
2021/10/30 00:26:02;;;;;;;47.95;34.60;;;9.80;99.90;;;;;;5035392;28;20025;-78
2021/10/30 00:28:28;;;;;;;47.55;34.20;;;9.80;99.90;;;;;;5044677;28;20531;-77
2021/10/30 00:30:54;;;;;;;47.65;34.45;;;9.80;99.90;;;;;;5032523;28;20037;-77
2021/10/30 00:33:19;;;;;;;48.55;33.95;;;9.80;99.90;;;;;;5044652;28;20029;-78
2021/10/30 00:35:45;;;;;;;52.35;34.85;;;9.80;99.90;;;;;;5052566;28;20033;-78
2021/10/30 00:38:11;;;;;;;43.88;33.28;;;9.80;99.90;;;;;;5041211;28;20037;-78
2021/10/30 00:40:36;;;;;;;51.78;33.33;;;9.80;99.90;;;;;;5052068;28;20074;-77
2021/10/30 00:43:02;;;;;;;45.22;32.13;;;9.80;99.90;;;;;;5040528;28;20040;-77
2021/10/30 00:45:29;;;;;;;45.17;32.83;;;9.80;99.90;;;;;;5051794;28;20025;-78
2021/10/30 00:47:55;;;;;;;46.92;32.92;;;9.80;99.90;;;;;;5046076;28;20116;-78
2021/10/30 00:50:21;;;;;;;43.47;33.63;;;9.70;99.90;;;;;;5033119;28;20167;-78
2021/10/30 00:52:47;;;;;;;45.65;33.20;;;9.70;99.90;;;;;;5040971;28;20029;-78
2021/10/30 00:55:13;;;;;;;46.67;32.88;;;9.70;99.90;;;;;;5051217;28;20025;-78
2021/10/30 00:57:40;;;;;;;44.90;33.17;;;9.70;99.90;;;;;;5043448;28;20022;-78
2021/10/30 01:00:08;;;;;;;50.25;32.47;;;9.70;99.90;;;;;;5048434;28;20021;-78
2021/10/30 01:02:34;;;;;;;37.63;30.67;;;9.70;99.90;;;;;;5043489;28;20029;-77
2021/10/30 01:05:00;;;;;;;43.60;32.67;;;9.70;99.90;;;;;;5048066;28;20392;-77
2021/10/30 01:07:27;;;;;;;40.38;30.05;;;9.70;99.90;;;;;;5045068;28;20445;-77
2021/10/30 01:09:54;;;;;;;40.10;31.20;;;9.70;99.90;;;;;;5046621;28;20051;-77
2021/10/30 01:12:20;;;;;;;43.42;30.15;;;9.70;99.90;;;;;;5045634;28;20483;-77
2021/10/30 01:14:47;;;;;;;41.47;30.55;;;9.70;99.90;;;;;;5051366;28;20044;-77
2021/10/30 01:17:12;;;;;;;42.78;31.73;;;9.70;99.90;;;;;;5046857;28;20040;-77
2021/10/30 01:19:38;;;;;;;43.92;31.90;;;9.70;99.90;;;;;;5046459;28;20040;-77
2021/10/30 01:22:04;;;;;;;42.28;30.80;;;9.70;99.90;;;;;;5044838;28;20057;-77
2021/10/30 01:24:30;;;;;;;43.38;29.40;;;9.70;99.90;;;;;;5051451;28;20021;-77
2021/10/30 01:26:56;;;;;;;40.20;30.30;;;9.60;99.90;;;;;;5044617;28;20036;-77
2021/10/30 01:29:23;;;;;;;43.75;30.15;;;9.60;99.90;;;;;;5049548;28;20028;-77
2021/10/30 01:31:49;;;;;;;41.15;29.90;;;9.60;99.90;;;;;;5046917;28;20664;-78
2021/10/30 01:34:15;;;;;;;34.72;27.70;;;9.70;99.90;;;;;;5051289;28;20028;-78
2021/10/30 01:36:41;;;;;;;35.60;27.63;;;9.70;99.90;;;;;;5047991;28;20705;-77
2021/10/30 01:39:08;;;;;;;39.58;28.17;;;9.80;99.90;;;;;;5048085;28;20029;-78
2021/10/30 01:41:34;;;;;;;40.55;29.45;;;9.80;99.90;;;;;;5047061;28;20468;-77
2021/10/30 01:44:03;;;;;;;37.40;27.50;;;9.80;99.90;;;;;;5043666;28;20113;-78
2021/10/30 01:46:29;;;;;;;37.33;27.77;;;9.80;99.90;;;;;;5040500;28;20434;-77
2021/10/30 01:48:55;;;;;;;37.75;27.38;;;9.70;99.90;;;;;;5044719;28;20037;-77
2021/10/30 01:51:22;;;;;;;39.15;28.90;;;9.80;99.90;;;;;;5049502;28;20037;-77
2021/10/30 01:53:48;;;;;;;42.58;27.73;;;9.70;99.90;;;;;;5045622;28;20036;-78
2021/10/30 01:56:14;;;;;;;39.50;28.13;;;9.70;99.90;;;;;;5049333;28;20112;-78
2021/10/30 01:58:40;;;;;;;38.00;27.58;;;9.70;99.90;;;;;;5047467;28;20029;-78
2021/10/30 02:01:07;;;;;;;42.67;28.67;;;9.70;99.90;;;;;;5044996;28;20084;-78
2021/10/30 02:03:33;;;;;;;36.58;26.65;;;9.80;99.90;;;;;;5045168;28;20106;-77
2021/10/30 02:06:01;;;;;;;37.70;28.25;;;9.70;99.90;;;;;;5050903;28;20040;-78
2021/10/30 02:08:27;;;;;;;39.00;28.67;;;9.70;99.90;;;;;;5044189;28;20025;-78
2021/10/30 02:10:53;;;;;;;43.30;26.48;;;9.70;99.90;;;;;;5050224;28;20033;-78
2021/10/30 02:13:20;;;;;;;39.10;28.73;;;9.70;99.90;;;;;;5047151;28;20059;-78
2021/10/30 02:15:46;;;;;;;37.78;26.90;;;9.70;99.90;;;;;;5054948;28;20538;-78
2021/10/30 02:18:12;;;;;;;37.22;27.70;;;9.60;99.90;;;;;;5045864;28;20025;-77
2021/10/30 02:20:38;;;;;;;35.58;27.23;;;9.60;99.90;;;;;;5054736;28;20024;-78
2021/10/30 02:23:04;;;;;;;33.38;27.08;;;9.50;99.90;;;;;;5041720;28;20029;-77
2021/10/30 02:25:30;;;;;;;38.17;28.00;;;9.50;99.90;;;;;;5053581;28;20106;-78
2021/10/30 02:27:56;;;;;;;37.50;26.33;;;9.50;99.90;;;;;;5046971;28;20179;-78
2021/10/30 02:30:22;;;;;;;36.25;26.35;;;9.50;99.90;;;;;;5054588;28;20426;-77
2021/10/30 02:32:48;;;;;;;34.08;24.70;;;9.50;99.90;;;;;;5047173;28;20052;-77
2021/10/30 02:35:14;;;;;;;40.67;26.55;;;9.50;99.90;;;;;;5054587;28;20078;-78
2021/10/30 02:37:40;;;;;;;38.75;26.60;;;9.60;99.90;;;;;;5053335;28;20021;-77
2021/10/30 02:40:08;;;;;;;37.20;26.10;;;9.60;99.90;;;;;;5053705;28;20029;-77
2021/10/30 02:42:34;;;;;;;35.40;24.88;;;9.60;99.90;;;;;;5048319;28;20116;-77
2021/10/30 02:45:00;;;;;;;34.70;25.40;;;9.60;99.90;;;;;;5070869;28;20037;-77
2021/10/30 02:47:29;;;;;;;35.38;25.42;;;9.60;99.90;;;;;;5044101;28;20361;-77
2021/10/30 02:49:55;;;;;;;34.13;26.35;;;9.70;99.90;;;;;;5048059;28;20021;-77
2021/10/30 02:52:21;;;;;;;35.30;24.98;;;9.80;99.90;;;;;;5052289;28;20059;-77
2021/10/30 02:54:46;;;;;;;36.75;26.15;;;9.80;99.90;;;;;;5053363;28;20082;-77
2021/10/30 02:57:12;;;;;;;36.38;25.33;;;9.70;99.90;;;;;;5052506;28;20029;-77
2021/10/30 02:59:38;;;;;;;36.85;24.10;;;9.70;99.90;;;;;;5053974;28;20064;-78
2021/10/30 03:02:04;;;;;;;35.20;25.08;;;9.70;99.90;;;;;;5050429;28;20049;-77
2021/10/30 03:04:30;;;;;;;35.45;24.15;;;9.70;99.90;;;;;;5042377;28;20454;-77
2021/10/30 03:06:56;;;;;;;37.08;24.83;;;9.70;99.90;;;;;;5052149;28;20025;-77
2021/10/30 03:09:21;;;;;;;30.80;24.35;;;9.70;99.90;;;;;;5052758;28;20044;-77
2021/10/30 03:11:47;;;;;;;32.47;24.08;;;9.80;99.90;;;;;;5048740;28;20046;-77
2021/10/30 03:14:13;;;;;;;31.17;24.73;;;9.70;99.90;;;;;;5051000;28;20044;-78
2021/10/30 03:16:39;;;;;;;31.42;24.13;;;9.70;99.90;;;;;;5050647;28;20028;-77
2021/10/30 03:19:05;;;;;;;31.58;24.33;;;9.70;99.90;;;;;;5052190;28;20098;-77
2021/10/30 03:21:30;;;;;;;31.92;24.85;;;9.70;99.90;;;;;;5052213;28;20048;-77
2021/10/30 03:23:56;;;;;;;30.17;23.92;;;9.70;99.90;;;;;;5041775;28;20403;-77
2021/10/30 03:26:22;;;;;;;32.28;24.10;;;9.70;99.90;;;;;;5035821;28;20375;-77
2021/10/30 03:28:48;;;;;;;31.55;22.90;;;9.70;99.90;;;;;;5074941;28;20084;-77
2021/10/30 03:31:13;;;;;;;34.25;23.38;;;9.70;99.90;;;;;;5034391;28;20034;-77
2021/10/30 03:33:39;;;;;;;37.63;24.42;;;9.70;99.90;;;;;;5049176;28;20032;-76
2021/10/30 03:36:05;;;;;;;33.67;23.52;;;9.70;99.90;;;;;;5051489;28;20036;-76
2021/10/30 03:38:31;;;;;;;34.78;22.65;;;9.70;99.90;;;;;;5047208;28;20021;-77
2021/10/30 03:40:56;;;;;;;29.08;22.38;;;9.70;99.90;;;;;;5033030;28;20022;-77
2021/10/30 03:43:22;;;;;;;27.33;22.00;;;9.70;99.90;;;;;;5044877;28;20487;-77
2021/10/30 03:45:48;;;;;;;37.20;23.25;;;9.70;99.90;;;;;;5033416;28;20030;-78
2021/10/30 03:48:17;;;;;;;25.98;21.85;;;9.60;99.90;;;;;;5046084;28;20040;-77
2021/10/30 03:50:44;;;;;;;34.15;22.95;;;9.70;99.90;;;;;;5053096;28;20060;-76
2021/10/30 03:53:10;;;;;;;33.00;22.05;;;9.60;99.90;;;;;;5040652;28;20033;-77
2021/10/30 03:55:36;;;;;;;35.80;22.92;;;9.60;99.90;;;;;;5053100;28;20047;-77
2021/10/30 03:58:02;;;;;;;29.63;21.95;;;9.60;99.90;;;;;;5045778;28;20391;-77
2021/10/30 04:00:28;;;;;;;28.50;22.30;;;9.60;99.90;;;;;;5064982;28;20092;-78
2021/10/30 04:02:55;;;;;;;28.52;22.27;;;9.60;99.90;;;;;;5044180;28;20032;-78
2021/10/30 04:05:21;;;;;;;26.73;20.50;;;9.50;99.90;;;;;;5032847;28;20056;-78
2021/10/30 04:07:46;;;;;;;24.00;19.95;;;9.50;99.90;;;;;;5045228;28;20055;-77
2021/10/30 04:10:12;;;;;;;24.77;19.85;;;9.50;99.90;;;;;;5035124;28;20480;-78
2021/10/30 04:12:38;;;;;;;25.58;19.67;;;9.50;99.90;;;;;;5040787;28;20438;-78
2021/10/30 04:15:04;;;;;;;25.65;18.60;;;9.50;99.90;;;;;;5041991;28;20025;-78
2021/10/30 04:17:30;;;;;;;25.75;18.85;;;9.50;99.90;;;;;;5045229;28;20033;-78
2021/10/30 04:19:56;;;;;;;25.50;18.48;;;9.50;99.90;;;;;;5048236;28;20025;-78
2021/10/30 04:22:22;;;;;;;27.10;18.05;;;9.50;99.90;;;;;;5044655;28;20036;-78
2021/10/30 04:24:47;;;;;;;20.92;16.92;;;9.60;99.90;;;;;;5052742;28;20146;-78
2021/10/30 04:27:13;;;;;;;25.27;16.52;;;9.60;99.90;;;;;;5046484;28;20104;-77
2021/10/30 04:29:39;;;;;;;25.92;18.55;;;9.70;99.90;;;;;;5039233;28;20051;-78
2021/10/30 04:32:06;;;;;;;22.30;17.45;;;9.70;99.90;;;;;;5035822;28;20037;-78
2021/10/30 04:37:27;;;;;;;23.33;18.20;;;9.60;99.90;;;;;;5036893;28;20037;-78
2021/10/30 04:39:53;;;;;;;27.92;18.52;;;9.50;99.90;;;;;;5052239;28;20033;-78
2021/10/30 04:42:20;;;;;;;27.90;18.50;;;9.40;99.90;;;;;;5044873;28;20451;-78
2021/10/30 04:44:47;;;;;;;24.73;19.20;;;9.40;99.90;;;;;;5037805;28;20116;-78
2021/10/30 04:47:16;;;;;;;28.45;18.48;;;9.30;99.90;;;;;;5036652;28;20029;-78
2021/10/30 04:49:45;;;;;;;23.80;17.38;;;9.20;99.90;;;;;;5038333;28;20053;-78
2021/10/30 04:52:11;;;;;;;23.02;17.80;;;9.20;99.90;;;;;;5036050;28;20030;-78
2021/10/30 04:54:36;;;;;;;20.48;16.60;;;9.20;99.90;;;;;;5050439;28;20086;-78
2021/10/30 04:57:03;;;;;;;26.08;17.30;;;9.20;99.90;;;;;;5045898;28;20026;-78
2021/10/30 04:59:28;;;;;;;23.67;18.45;;;9.20;99.90;;;;;;5040017;28;20033;-79
2021/10/30 05:01:54;;;;;;;25.48;18.40;;;9.10;99.90;;;;;;5033786;28;20041;-78
2021/10/30 05:04:20;;;;;;;23.98;17.17;;;9.10;99.90;;;;;;5040767;28;20025;-77
2021/10/30 05:06:45;;;;;;;20.77;17.77;;;9.10;99.90;;;;;;5034597;28;20028;-77
2021/10/30 05:09:11;;;;;;;23.80;17.95;;;9.00;99.90;;;;;;5039226;28;20384;-77
2021/10/30 05:11:37;;;;;;;22.00;17.02;;;9.00;99.90;;;;;;5034420;28;20039;-78
2021/10/30 05:14:03;;;;;;;24.52;18.65;;;9.00;99.90;;;;;;5039259;28;20025;-76
2021/10/30 05:16:29;;;;;;;29.98;17.98;;;8.90;99.90;;;;;;5031925;28;20029;-77
2021/10/30 05:18:54;;;;;;;22.75;17.80;;;8.90;99.90;;;;;;5042979;28;20048;-77
2021/10/30 05:21:20;;;;;;;29.48;18.13;;;8.90;99.90;;;;;;5048484;28;20064;-76
2021/10/30 05:23:46;;;;;;;26.63;19.67;;;8.80;99.90;;;;;;5041430;28;20044;-77
2021/10/30 05:26:12;;;;;;;23.58;19.13;;;8.70;99.90;;;;;;5049913;28;20032;-78
2021/10/30 05:28:37;;;;;;;23.27;18.75;;;8.60;99.90;;;;;;5042160;28;20361;-76
2021/10/30 05:31:03;;;;;;;25.27;18.52;;;8.50;99.90;;;;;;5040324;28;20043;-77
2021/10/30 05:33:29;;;;;;;25.30;18.65;;;8.40;99.90;;;;;;5041694;28;20021;-76
2021/10/30 05:35:55;;;;;;;24.55;17.98;;;8.30;99.90;;;;;;5037388;28;20075;-76
2021/10/30 05:38:21;;;;;;;29.55;18.52;;;8.20;99.90;;;;;;5037150;28;20055;-77
2021/10/30 05:40:47;;;;;;;25.23;18.33;;;8.20;99.90;;;;;;5048323;28;20025;-76
2021/10/30 05:43:14;;;;;;;22.00;17.88;;;8.20;99.90;;;;;;5042130;28;20021;-76
2021/10/30 05:45:41;;;;;;;25.50;17.38;;;8.20;99.90;;;;;;5034064;28;20033;-76
2021/10/30 05:48:08;;;;;;;28.08;18.98;;;8.20;99.90;;;;;;5043896;28;20031;-76
2021/10/30 05:50:34;;;;;;;27.40;19.77;;;8.10;99.90;;;;;;5037233;28;20025;-76
2021/10/30 05:53:01;;;;;;;27.55;16.73;;;8.20;99.90;;;;;;5038627;28;20026;-76
2021/10/30 05:55:27;;;;;;;23.67;15.48;;;8.20;99.90;;;;;;5040360;28;20112;-77
2021/10/30 05:57:53;;;;;;;26.55;15.82;;;8.20;99.90;;;;;;5037081;28;20037;-77
2021/10/30 06:00:19;;;;;;;24.30;17.00;;;8.30;99.90;;;;;;5049104;28;20041;-77
2021/10/30 06:02:45;;;;;;;23.55;16.95;;;8.30;99.90;;;;;;5044785;28;20033;-78
2021/10/30 06:05:11;;;;;;;23.90;17.73;;;8.30;99.90;;;;;;5033714;28;20481;-77
2021/10/30 06:07:38;;;;;;;27.85;18.25;;;8.30;99.90;;;;;;5037489;28;20032;-77
2021/10/30 06:10:04;;;;;;;23.85;17.05;;;8.50;99.90;;;;;;5034128;28;20029;-76
2021/10/30 06:12:30;;;;;;;22.75;15.73;;;8.50;99.90;;;;;;5036529;28;20394;-76
2021/10/30 06:14:55;;;;;;;26.02;17.38;;;8.50;99.90;;;;;;5067805;28;20025;-77
2021/10/30 06:17:21;;;;;;;22.15;16.77;;;8.50;99.90;;;;;;5034733;28;20030;-76
2021/10/30 06:19:47;;;;;;;23.67;16.58;;;8.60;99.90;;;;;;5060314;28;20024;-76
2021/10/30 06:22:14;;;;;;;22.05;16.52;;;8.60;99.90;;;;;;5044621;28;20013;-77
2021/10/30 06:24:41;;;;;;;23.25;15.93;;;8.60;99.90;;;;;;5037748;28;20108;-77
2021/10/30 06:27:08;;;;;;;26.58;17.90;;;8.60;99.90;;;;;;5037852;28;20032;-77
2021/10/30 06:29:34;;;;;;;28.20;16.58;;;8.70;99.90;;;;;;5030658;28;20091;-76
2021/10/30 06:31:59;;;;;;;26.92;16.75;;;8.80;99.90;;;;;;5032824;28;20061;-77
2021/10/30 06:34:25;;;;;;;24.63;15.75;;;8.70;99.90;;;;;;5070524;28;20025;-76
2021/10/30 06:36:51;;;;;;;23.67;16.35;;;8.80;99.90;;;;;;5039859;28;20025;-76
2021/10/30 06:39:17;;;;;;;20.30;15.15;;;8.90;99.90;;;;;;5037232;28;20017;-78
2021/10/30 06:41:42;;;;;;;21.58;15.95;;;8.90;99.90;;;;;;5043245;28;20082;-80
2021/10/30 06:44:08;;;;;;;24.80;16.30;;;9.00;99.90;;;;;;5048752;28;20036;-78
2021/10/30 06:46:34;;;;;;;24.42;16.30;;;9.10;99.90;;;;;;5048188;28;20021;-77
2021/10/30 06:49:00;;;;;;;24.70;15.98;;;9.20;99.90;;;;;;5042714;28;20099;-79
2021/10/30 06:51:26;;;;;;;20.25;15.00;;;9.30;99.90;;;;;;5033156;28;20480;-78
2021/10/30 06:53:52;;;;;;;21.27;15.68;;;9.40;99.90;;;;;;5039426;28;20463;-77
2021/10/30 06:56:19;;;;;;;21.10;15.38;;;9.50;99.90;;;;;;5032047;28;20056;-77
2021/10/30 06:58:46;;;;;;;19.85;14.27;;;9.50;99.90;;;;;;5041618;28;20531;-77
2021/10/30 07:01:16;;;;;;;18.08;15.15;;;9.60;99.90;;;;;;5031811;28;20062;-76
2021/10/30 07:03:44;;;;;;;21.23;13.98;;;9.70;99.90;;;;;;5041815;28;20586;-78
2021/10/30 07:06:13;;;;;;;18.15;15.10;;;9.80;99.90;;;;;;5050929;28;20120;-77
2021/10/30 07:08:38;;;;;;;19.30;14.48;;;9.90;99.90;;;;;;5041186;28;20143;-77
2021/10/30 07:11:05;;;;;;;20.92;15.50;;;10.00;99.90;;;;;;5051082;28;20491;-76
2021/10/30 07:13:30;;;;;;;19.80;14.48;;;10.10;99.90;;;;;;5036925;28;20391;-77
2021/10/30 07:15:56;;;;;;;17.50;14.05;;;10.30;99.90;;;;;;5051294;28;20025;-77
2021/10/30 07:18:22;;;;;;;16.42;13.63;;;10.40;99.90;;;;;;5048540;28;20032;-76
2021/10/30 07:20:48;;;;;;;19.40;13.38;;;10.60;99.90;;;;;;5080661;28;20028;-77
2021/10/30 07:23:16;;;;;;;19.73;13.65;;;10.70;99.90;;;;;;5047333;28;20025;-77
2021/10/30 07:25:41;;;;;;;21.15;14.07;;;10.80;99.90;;;;;;5049015;28;20082;-76
2021/10/30 07:28:07;;;;;;;18.00;13.20;;;10.90;99.90;;;;;;5041393;28;20461;-78
2021/10/30 07:30:33;;;;;;;21.63;13.93;;;11.00;99.90;;;;;;5051903;28;20033;-78
2021/10/30 07:32:59;;;;;;;19.00;14.13;;;11.20;99.90;;;;;;5045732;28;20025;-77
2021/10/30 07:35:24;;;;;;;20.48;13.52;;;11.30;99.90;;;;;;5052503;28;20037;-80
2021/10/30 07:37:51;;;;;;;17.80;13.88;;;11.50;99.90;;;;;;5046998;28;20061;-77
2021/10/30 07:40:17;;;;;;;19.05;14.45;;;11.60;99.90;;;;;;5048983;28;20025;-76
2021/10/30 07:42:44;;;;;;;18.30;13.23;;;11.70;99.90;;;;;;5043851;28;20108;-79
2021/10/30 07:45:10;;;;;;;17.45;13.75;;;11.80;99.90;;;;;;5048647;28;20412;-78
2021/10/30 07:47:36;;;;;;;20.67;14.32;;;11.90;99.90;;;;;;5042731;28;20037;-76
2021/10/30 07:50:03;;;;;;;18.08;12.65;;;12.00;99.90;;;;;;5033946;28;20037;-77
2021/10/30 07:52:29;;;;;;;15.85;13.02;;;12.00;99.60;;;;;;5035287;28;20033;-76
2021/10/30 07:54:55;;;;;;;18.77;13.07;;;12.10;99.10;;;;;;5045446;28;20028;-77
2021/10/30 07:57:21;;;;;;;21.23;13.25;;;12.20;97.80;;;;;;5043968;28;20439;-78
2021/10/30 07:59:50;;;;;;;18.02;13.65;;;12.30;98.30;;;;;;5035870;28;20068;-77
2021/10/30 08:02:17;;;;;;;17.92;12.52;;;12.30;98.30;;;;;;5034782;28;20041;-77
2021/10/30 08:04:43;;;;;;;16.63;12.88;;;12.40;97.40;;;;;;5048368;28;20108;-77
2021/10/30 08:07:09;;;;;;;18.63;13.43;;;12.50;97.70;;;;;;5043608;28;20797;-78
2021/10/30 08:09:35;;;;;;;17.83;13.07;;;12.60;97.50;;;;;;5069330;28;20033;-78
2021/10/30 08:12:01;;;;;;;15.57;12.40;;;12.60;97.10;;;;;;5030858;28;20038;-76
2021/10/30 08:14:27;;;;;;;16.63;12.55;;;12.70;96.30;;;;;;5036610;28;20032;-76
2021/10/30 08:16:53;;;;;;;20.33;12.68;;;12.80;95.90;;;;;;5032368;28;20029;-77
2021/10/30 08:19:18;;;;;;;18.90;12.27;;;12.80;96.30;;;;;;5037225;28;20017;-75
2021/10/30 08:21:44;;;;;;;17.88;11.32;;;12.90;96.50;;;;;;5032874;28;20026;-77
2021/10/30 08:24:12;;;;;;;13.77;12.02;;;13.00;96.10;;;;;;5039678;28;20030;-77
2021/10/30 08:26:38;;;;;;;19.17;11.27;;;13.10;95.20;;;;;;5032078;28;20029;-76
2021/10/30 08:29:05;;;;;;;17.35;12.05;;;13.20;94.80;;;;;;5038362;28;20079;-76
2021/10/30 08:31:31;;;;;;;20.40;12.02;;;13.30;94.30;;;;;;5032439;28;20037;-77
2021/10/30 08:33:57;;;;;;;17.52;11.38;;;13.40;94.60;;;;;;5040285;28;20651;-77
2021/10/30 08:36:27;;;;;;;16.85;11.55;;;13.50;93.60;;;;;;5045847;28;20021;-76
2021/10/30 08:38:53;;;;;;;16.02;10.57;;;13.60;93.40;;;;;;5040083;28;20021;-76
2021/10/30 08:41:19;;;;;;;13.35;11.13;;;13.80;93.30;;;;;;5047698;28;20067;-76
2021/10/30 08:43:47;;;;;;;14.80;11.07;;;13.90;92.90;;;;;;5042201;28;20040;-76
2021/10/30 08:46:14;;;;;;;13.07;10.40;;;14.00;92.50;;;;;;5046632;28;20035;-75
2021/10/30 08:48:40;;;;;;;18.60;12.32;;;14.10;91.90;;;;;;5048099;28;20021;-77
2021/10/30 08:51:06;;;;;;;14.52;10.40;;;14.30;92.00;;;;;;5047796;28;20037;-77
2021/10/30 08:53:32;;;;;;;13.95;10.43;;;14.40;91.40;;;;;;5039902;28;20467;-76
2021/10/30 08:56:03;;;;;;;13.77;10.88;;;14.50;90.80;;;;;;5028699;28;20037;-78
2021/10/30 08:58:29;;;;;;;14.90;10.40;;;14.60;89.20;;;;;;5041109;28;20085;-76
2021/10/30 09:01:01;;;;;;;14.65;10.70;;;14.80;89.30;;;;;;5027690;28;20484;-77
2021/10/30 09:03:28;;;;;;;;;;;14.90;88.30;;;;;;5035545;28;20368;-77
2021/10/30 09:05:57;;;;;;;18.90;12.77;;;15.00;87.90;;;;;;5047983;28;19931;-76
2021/10/30 09:08:26;;;;;;;17.33;12.43;;;15.10;88.60;;;;;;5036192;28;20077;-76
2021/10/30 09:10:55;;;;;;;16.90;11.40;;;15.00;86.80;;;;;;5080100;28;20540;-76
2021/10/30 09:13:22;;;;;;;17.00;10.80;;;15.10;84.80;;;;;;5036128;28;20033;-77
2021/10/30 09:15:50;;;;;;;18.63;12.32;;;15.10;83.70;;;;;;5047067;28;20037;-76
2021/10/30 09:18:36;;;;;;;17.73;11.35;;;15.20;83.40;;;;;;5038630;28;20439;-76
2021/10/30 09:21:04;;;;;;;16.80;13.38;;;15.30;85.00;;;;;;5027813;28;20057;-77
2021/10/30 09:23:33;;;;;;;21.45;13.43;;;15.40;85.00;;;;;;5053857;28;20030;-78
2021/10/30 09:26:23;;;;;;;34.05;14.63;;;15.40;86.60;;;;;;5027990;28;20553;-76
2021/10/30 09:29:02;;;;;;;26.30;14.27;;;15.50;87.30;;;;;;5034228;28;20707;-78
2021/10/30 09:31:28;;;;;;;34.25;13.32;;;15.30;88.40;;;;;;5045847;28;20032;-77
2021/10/30 09:34:03;;;;;;;21.85;13.35;;;15.10;88.30;;;;;;5035421;28;20025;-75
2021/10/30 09:36:38;;;;;;;24.90;14.60;;;15.10;85.50;;;;;;5030345;28;20029;-77
2021/10/30 09:39:10;;;;;;;21.17;13.50;;;15.20;86.50;;;;;;5036146;28;20030;-76
2021/10/30 09:41:38;;;;;;;16.80;11.65;;;15.40;84.50;;;;;;5030566;28;20408;-77
2021/10/30 09:44:10;;;;;;;16.33;11.95;;;15.50;83.70;;;;;;5039264;28;20028;-75
2021/10/30 09:46:54;;;;;;;18.90;12.75;;;15.60;83.20;;;;;;5043805;28;20510;-77
2021/10/30 09:49:21;;;;;;;17.63;13.38;;;15.60;82.30;;;;;;5035505;28;20030;-77
2021/10/30 09:51:51;;;;;;;17.38;12.85;;;15.70;81.90;;;;;;5031647;28;20103;-77
2021/10/30 09:54:41;;;;;;;16.27;11.23;;;15.80;82.00;;;;;;5039159;28;20022;-77
2021/10/30 09:57:11;;;;;;;18.25;12.15;;;16.00;81.40;;;;;;5044676;28;20045;-76
2021/10/30 09:59:39;;;;;;;21.05;13.05;;;16.10;80.80;;;;;;5028027;28;20025;-77
2021/10/30 10:02:07;;;;;;;19.70;12.32;;;16.10;82.20;;;;;;5034478;28;20116;-77
2021/10/30 10:04:36;;;;;;;24.00;12.98;;;16.20;82.70;;;;;;5040172;28;20507;-77
2021/10/30 10:07:08;;;;;;;20.42;14.38;;;16.40;80.70;;;;;;5043434;28;20502;-77
2021/10/30 10:09:35;;;;;;;16.57;12.27;;;16.40;79.60;;;;;;5039848;28;20028;-76
2021/10/30 10:12:01;;;;;;;20.70;12.27;;;16.30;80.30;;;;;;5045731;28;20521;-77
2021/10/30 10:14:28;;;;;;;21.27;11.98;;;16.20;81.80;;;;;;5027933;28;20025;-79
2021/10/30 10:16:55;;;;;;;25.88;12.93;;;16.10;85.90;;;;;;5029567;28;20457;-77
2021/10/30 10:19:23;;;;;;;20.88;13.52;;;16.00;89.50;;;;;;5035904;28;20022;-77
2021/10/30 10:21:50;;;;;;;16.65;13.68;;;15.90;90.20;;;;;;5029882;28;20149;-76
2021/10/30 10:24:28;;;;;;;17.25;14.25;;;15.80;90.60;;;;;;5036035;28;20033;-77
2021/10/30 10:26:58;;;;;;;23.15;15.02;;;15.80;90.50;;;;;;5046240;28;20047;-76
2021/10/30 10:29:31;;;;;;;23.02;16.00;;;15.90;91.70;;;;;;5047210;28;20062;-77
2021/10/30 10:31:58;;;;;;;22.00;14.23;;;15.90;91.90;;;;;;5042309;28;20491;-76
2021/10/30 10:34:35;;;;;;;19.40;15.10;;;15.80;92.50;;;;;;5047597;28;20426;-77
2021/10/30 10:37:17;;;;;;;20.75;15.43;;;15.80;91.70;;;;;;5041610;28;20086;-77
2021/10/30 10:39:44;;;;;;;20.17;16.30;;;16.00;92.50;;;;;;5034660;28;20036;-78
2021/10/30 10:42:12;;;;;;;22.27;17.13;;;16.10;92.90;;;;;;5039017;28;20037;-76
2021/10/30 10:44:41;;;;;;;24.48;16.45;;;16.10;92.80;;;;;;5047577;28;20060;-77
2021/10/30 10:47:26;;;;;;;25.77;17.45;;;15.90;93.90;;;;;;5046569;28;20025;-77
2021/10/30 10:50:14;;;;;;;25.00;18.13;;;15.90;96.00;;;;;;5050430;28;20020;-77
2021/10/30 10:53:07;;;;;;;21.95;17.52;;;16.10;96.70;;;;;;5057188;28;20569;-76
2021/10/30 10:55:57;;;;;;;27.63;19.75;;;16.00;98.60;;;;;;5031316;28;20029;-77
2021/10/30 10:58:24;;;;;;;25.48;19.55;;;16.00;99.00;;;;;;5043664;28;20040;-77
2021/10/30 11:01:07;;;;;;;21.30;18.60;;;16.00;99.90;;;;;;5050687;28;20132;-76
2021/10/30 11:03:41;;;;;;;23.02;19.00;;;16.10;99.90;;;;;;5048637;28;20028;-77
2021/10/30 11:06:06;;;;;;;24.58;19.60;;;16.00;99.90;;;;;;5050043;28;20013;-76
2021/10/30 11:08:34;;;;;;;29.75;19.95;;;16.00;99.90;;;;;;5043682;28;20029;-77
2021/10/30 11:11:14;;;;;;;24.95;18.92;;;16.00;99.90;;;;;;5029450;28;20663;-76
2021/10/30 11:13:53;;;;;;;28.63;19.02;;;16.10;99.90;;;;;;5038447;28;20075;-77
2021/10/30 11:16:31;;;;;;;22.55;16.23;;;16.30;98.60;;;;;;5033068;28;20029;-77
2021/10/30 11:19:01;;;;;;;23.27;16.00;;;16.50;96.90;;;;;;5046589;28;20213;-77
2021/10/30 11:21:34;;;;;;;22.25;17.60;;;16.70;93.50;;;;;;5049265;28;20024;-77
2021/10/30 11:24:20;;;;;;;27.33;21.02;;;16.70;96.30;;;;;;5038160;28;20024;-78
2021/10/30 11:26:54;;;;;;;30.40;22.13;;;16.60;99.70;;;;;;5045414;28;20398;-77
2021/10/30 11:29:20;;;;;;;28.08;20.40;;;16.50;99.90;;;;;;5037953;28;20026;-77
2021/10/30 11:31:52;;;;;;;29.20;21.15;;;16.50;99.90;;;;;;5033325;28;20514;-76
2021/10/30 11:34:19;;;;;;;26.25;21.13;;;16.50;99.90;;;;;;5040882;28;20100;-78
2021/10/30 11:36:45;;;;;;;35.92;22.40;;;16.50;99.90;;;;;;5047816;28;20075;-76
2021/10/30 11:39:14;;;;;;;28.73;22.00;;;16.50;99.90;;;;;;5031931;28;20029;-77
2021/10/30 11:41:43;;;;;;;26.20;22.08;;;16.50;99.90;;;;;;5033396;28;20087;-77
2021/10/30 11:44:10;;;;;;;25.88;21.33;;;16.60;99.90;;;;;;5041290;28;20033;-78
2021/10/30 11:46:56;;;;;;;28.88;21.67;;;16.80;99.90;;;;;;5047045;28;20024;-76
2021/10/30 11:49:27;;;;;;;24.10;19.92;;;16.70;99.90;;;;;;5048092;28;20441;-77
2021/10/30 11:51:59;;;;;;;33.53;22.40;;;16.70;99.90;;;;;;5048009;28;20444;-79
2021/10/30 11:54:25;;;;;;;30.20;23.55;;;16.80;99.90;;;;;;5047340;28;20100;-78
2021/10/30 11:56:52;;;;;;;28.38;22.20;;;16.70;99.90;;;;;;5047486;28;20547;-77
2021/10/30 11:59:17;;;;;;;35.63;22.63;;;16.60;99.90;;;;;;5046645;28;20391;-77
2021/10/30 12:01:44;;;;;;;27.60;21.00;;;16.60;99.90;;;;;;5046178;28;20052;-77
2021/10/30 12:04:13;;;;;;;25.23;19.98;;;17.20;99.90;;;;;;5048550;28;20456;-76
2021/10/30 12:06:46;;;;;;;34.88;21.42;;;18.60;99.90;;;;;;5043799;28;20087;-77
2021/10/30 12:09:23;;;;;;;23.60;19.17;;;19.90;98.30;;;;;;5048470;28;20049;-77
2021/10/30 12:11:51;;;;;;;24.05;20.23;;;21.70;94.30;;;;;;5046997;28;20573;-76
2021/10/30 12:14:22;;;;;;;21.77;18.45;;;22.00;90.60;;;;;;5048537;28;20055;-76
2021/10/30 12:16:48;;;;;;;21.70;18.17;;;22.50;87.80;;;;;;5046800;28;20530;-78
2021/10/30 12:19:14;;;;;;;24.83;18.48;;;23.00;83.20;;;;;;5048250;28;20045;-80
2021/10/30 12:21:40;;;;;;;24.20;18.85;;;23.40;82.00;;;;;;5045253;28;20033;-77
2021/10/30 12:24:15;;;;;;;25.63;18.27;;;24.10;79.20;;;;;;5048130;28;20021;-77
2021/10/30 12:26:58;;;;;;;22.13;18.33;;;24.30;76.90;;;;;;5042909;28;20624;-76
2021/10/30 12:29:27;;;;;;;21.55;18.33;;;24.30;75.80;;;;;;5047284;28;20725;-76
2021/10/30 12:32:05;;;;;;;23.20;18.48;;;24.20;74.70;;;;;;5042693;28;20045;-77
2021/10/30 12:34:33;;;;;;;24.02;20.20;;;23.80;75.20;;;;;;5041328;28;20432;-78
2021/10/30 12:37:09;;;;;;;21.13;18.30;;;22.40;80.30;;;;;;5046509;28;20021;-77
2021/10/30 12:39:35;;;;;;;20.42;17.83;;;22.80;80.20;;;;;;5047463;28;20016;-77